Gabriele Chiari

Chefscout - Genoa
14 Okt 2027
Donnerstag
Verarbeitung

Persönlichkeit

Anpassungsfähigkeit (12) Ehrgeiz (6) Kontroverse (10) Loyalität (10) Druck (2) Professionalität (5) Fairness (5) Temperament (5)

Profil

Trainerstil Demokratisch
Lizenz Nationale A
Entschlossenheit 11
Menschenführung 11
Motivation 8
Disziplin 9
Arbeitszufriedenheit
100%
Ermüdung
0%
Rolle Chefscout
Gehalt 67.1K p/W
Vertrag 14.03.2028

Leistung

Verhalten Gut
Trainingseffektivität
51%
Spielerentwicklung
60%
Verletzungsprävention
55%
Taktische Umsetzung
50%

Letzte Ereignisse

Nahm an einer Scouting-Besprechung teil jetzt
Nahm an einer Scouting-Besprechung teil jetzt
Nahm an einer Scouting-Besprechung teil jetzt
Nahm an einer Scouting-Besprechung teil jetzt
Empfahl ein Transferziel jetzt
Empfahl ein Transferziel jetzt
Nahm an einer Scouting-Besprechung teil jetzt
Spieler begutachtet 7T her

Aktuell beobachtet

138
Spieler Verein Status Fähigkeit Vertrauen Beobachtet Zuletzt beobachtet Letzte Stimme
Felipe Obradovich Ferro Carril Oeste Aktiv 97 / 120 40% 3 13.10.2027 -
Celías Ingenthron Vélez Aktiv 124 / 120 40% 1 13.10.2027 -
Vitor Reis Manchester City Aktiv 133 / 147 40% 2 12.10.2027 -
Rufai Mohammed IF Elfsborg Aktiv 88 / 111 40% 1 12.10.2027 -
Agustín Obregón River Plate Aktiv 104 / 116 40% 1 09.10.2027 -
Matías Gómez Granada Aktiv 127 / 126 40% 1 09.10.2027 -
Josh King Chelsea Aktiv 151 / 154 40% 5 08.10.2027 -
Camilo Rey Domenech Boca Juniors Aktiv 126 / 128 40% 4 08.10.2027 -
Mauro Carrizo Atlético Tucumán Aktiv 101 / 103 40% 2 07.10.2027 -
Honest Ahanor Atalanta Aktiv 126 / 144 40% 2 06.10.2027 -
Hervin Goyes Deportivo Pasto Aktiv 105 / 108 40% 3 06.10.2027 -
Nazareno Roselli Defensa y Justicia Aktiv 126 / 122 40% 3 05.10.2027 -
Mikkel Hope Haugesund Aktiv 99 / 107 40% 1 05.10.2027 -
Davide Bartesaghi AC Milan Aktiv 136 / 142 40% 6 03.10.2027 -
Alejandro Almaraz Nueva Chicago Aktiv 116 / 120 40% 1 03.10.2027 -
Julián Bazán Philadelphia Union Aktiv 97 / 123 40% 1 02.10.2027 -
Fillip Jenssen Riise Stabaek Aktiv 84 / 106 40% 2 01.10.2027 -
Miguel Figueiredo Cesena Aktiv 119 / 128 40% 1 28.09.2027 -
Jofre Torrents Ajax Aktiv 121 / 140 40% 3 27.09.2027 -
Yunus Emre Konak Brentford Aktiv 122 / 136 40% 1 27.09.2027 -
Bahia Criciuma Aktiv 108 / 119 40% 1 23.09.2027 -
Eliás Montiel Werder Bremen Aktiv 143 / 138 40% 2 22.09.2027 -
Malick Yalcouyé Brighton Aktiv 142 / 134 40% 1 22.09.2027 -
Christ Inao Oulaï Fiorentina Aktiv 152 / 139 40% 2 21.09.2027 -
Lennon Miller Udinese Aktiv 138 / 148 40% 1 20.09.2027 -
Niccolò Fortini Fiorentina Aktiv 120 / 133 40% 2 15.09.2027 -
Teo Rodríguez Pagano River Plate Aktiv 118 / 120 40% 1 14.09.2027 -
David Odogu AC Milan Aktiv 128 / 128 40% 1 12.09.2027 -
Martín Jiménez Audax Italiano Aktiv 108 / 111 40% 1 09.09.2027 -
Veljko Milosavljević Aston Villa Aktiv 144 / 142 40% 1 02.09.2027 -
Leandro Martins Benfica Aktiv 91 / 98 40% 1 14.07.2027 -
Edoardo Tartaglia Renate Aktiv 95 / 110 40% 1 14.07.2027 -
Riley Owen Trento Aktiv 106 / 114 40% 2 09.06.2027 -
Youri Baas Bournemouth Bericht bereit 144 / 147 67% 1 01.06.2027 -
Tobias Slotsager Casertana Aktiv 122 / 123 40% 1 31.05.2027 -
Kazunari Kita Real Sociedad Aktiv 108 / 110 40% 2 29.05.2027 -
Juan Giménez Celta Aktiv 117 / 120 40% 1 28.05.2027 -
Ibrahim Maza Bayer Leverkusen Aktiv 147 / 147 40% 3 26.05.2027 -
Diego Moreira AC Milan Aktiv 153 / 143 40% 3 25.05.2027 -
Tiago Freitas Benfica Aktiv 108 / 113 40% 1 24.05.2027 -
Gonçalo Oliveira Benfica Aktiv 113 / 119 40% 1 23.05.2027 -
Hlompho Lorch Ajax Cape Town Aktiv 110 / 105 40% 1 22.05.2027 -
Martim Cunha Porto Aktiv 100 / 108 40% 1 22.05.2027 -
Samuele di Benedetto Bari Aktiv 121 / 118 40% 2 21.05.2027 -
Nicolò Zaniolo Udinese Aktiv 146 / 139 40% 9 19.05.2027 -
Nicolò Cambiaghi Bologna Aktiv 151 / 144 40% 10 17.05.2027 -
Zakaria Aboukhlal Torino Aktiv 134 / 130 40% 9 16.05.2027 -
Leonardo Mendicino Bari Aktiv 112 / 122 40% 2 15.05.2027 -
Borja Sainz Fiorentina Aktiv 159 / 147 40% 4 13.05.2027 -
Yankuba Minteh Brighton Aktiv 159 / 157 40% 2 13.05.2027 -
Nadir Zortea Bologna Aktiv 128 / 144 40% 2 12.05.2027 -
Assane Diao Lazio Aktiv 139 / 144 40% 3 11.05.2027 -
Antonio Vergara Napoli Aktiv 138 / 135 40% 4 11.05.2027 -
Adam Bakoune Ospitaletto Aktiv 93 / 96 40% 1 11.05.2027 -
Unai Gómez Udinese Aktiv 140 / 138 40% 2 10.05.2027 -
Gustav Isaksen Lazio Aktiv 134 / 149 40% 4 07.05.2027 -
Rodrigo Mora AS Roma Aktiv 123 / 137 40% 1 03.05.2027 -
Matvey Kislyak CSKA Moscow Aktiv 137 / 142 40% 1 03.05.2027 -
Finn Jeltsch VfB Stuttgart Aktiv 124 / 145 40% 1 03.05.2027 -
Raoul Bellanova Atalanta Aktiv 160 / 153 40% 5 30.04.2027 Beobachten
Giacomo Raspadori Atalanta Aktiv 160 / 146 40% 9 27.04.2027 -
Cristian Shpendi Cesena Aktiv 132 / 129 40% 1 27.04.2027 -
Josh Doig Sassuolo Aktiv 138 / 135 40% 3 26.04.2027 -
Jayden Addai Como Aktiv 147 / 142 40% 3 26.04.2027 -
Lucas Da Cunha Como Aktiv 152 / 149 40% 4 24.04.2027 -
Romano Schmid Frosinone Aktiv 155 / 149 67% 7 20.04.2027 -
Cher Ndour Fiorentina Aktiv 121 / 142 40% 5 19.04.2027 -
Tommaso Pobega Bologna Aktiv 147 / 134 40% 1 19.04.2027 -
Andrea Colpani Monza Aktiv 127 / 128 40% 3 18.04.2027 -
Nuno Tavares Lazio Aktiv 161 / 143 40% 7 17.04.2027 -
Juan Rodríguez Cagliari Aktiv 123 / 125 40% 1 06.04.2027 -
Sascha Britschgi Padova Aktiv 108 / 133 40% 1 06.04.2027 -
Manu Koné AS Roma Aktiv 170 / 156 40% 3 03.04.2027 -
Jordan Zemura Udinese Aktiv 136 / 129 40% 3 31.03.2027 -
Jesús Rodríguez Como Aktiv 151 / 147 40% 4 29.03.2027 -
Jens Odgaard Bologna Aktiv 129 / 135 40% 5 22.03.2027 -
Marcelo Allende Mamelodi Sundowns Aktiv 127 / 135 40% 3 16.03.2027 -
Matías Soulé AS Roma Aktiv 163 / 153 40% 6 07.03.2027 Beobachten
Lewis Ferguson Bologna Aktiv 142 / 142 40% 2 05.03.2027 -
Luís Henrique Inter Aktiv 154 / 143 40% 3 24.02.2027 -
Alessio Zerbin Frosinone Aktiv 125 / 128 40% 2 22.02.2027 -
Petar Stanić Ludogorets Aktiv 145 / 138 40% 1 07.02.2027 -
Vangelis Pavlidis Twente Aktiv 152 / 152 90% 1 01.01.2027 -
Roberto Alvarado Monaco Aktiv 139 / 139 66% 1 01.01.2027 -
Mohamed Belloumi Hull City Aktiv 133 / 134 67% 1 01.01.2027 Befürworten
Rodrigo Zalazar Sporting CP Aktiv 148 / 148 67% 1 01.01.2027 Befürworten
Amin Sarr Hellas Verona Aktiv 136 / 128 48% 4 31.12.2026 -
Kwame Opoku Asante Kotoko Aktiv 116 / 97 40% 2 29.12.2026 -
John Yeboah Venezia Aktiv 133 / 114 40% 1 29.12.2026 -
Mandla Mahlangu Ajax Cape Town Aktiv 122 / 106 40% 2 26.12.2026 -
Yoan Bonny Inter Aktiv 131 / 150 40% 2 25.12.2026 -
Ruben van Bommel Ferencvaros Aktiv 129 / 139 40% 3 25.12.2026 -
Bernat Guiu Virtus Entella Aktiv 104 / 118 40% 1 24.12.2026 -
Matteo Rover Reggiana Aktiv 130 / 113 40% 1 22.12.2026 -
Konan N'Dri Lecce Aktiv 125 / 121 40% 1 22.12.2026 -
Esequiel Barco Spartak Moscow Aktiv 150 / 134 40% 1 22.12.2026 -
Alessandro Buongiorno Sassuolo Aktiv 157 / 161 40% 1 22.12.2026 -
Mattia Felici Cagliari Aktiv 133 / 129 40% 3 18.12.2026 -
Santiago Pierotti Lecce Aktiv 142 / 126 40% 1 15.12.2026 -
Luciano Gondou CSKA Moscow Aktiv 130 / 130 40% 1 15.12.2026 -
Everton Bala Levski Aktiv 139 / 131 40% 1 13.12.2026 -
David Romero Parma Aktiv 127 / 131 40% 1 12.12.2026 -
Evidence Makgopa Orlando Pirates Aktiv 121 / 112 40% 1 11.12.2026 -
Gonçalo Ramos AC Milan Aktiv 157 / 154 40% 3 10.12.2026 Beobachten
Stiven Shpendi Empoli Aktiv 117 / 121 40% 1 10.12.2026 -
Alexis Saelemaekers AC Milan Aktiv 140 / 152 40% 1 05.12.2026 -
Donyell Malen AS Roma Aktiv 140 / 144 40% 1 05.12.2026 -
Jhon Jhon Zenit Aktiv 121 / 136 40% 1 04.12.2026 -
Juan Miranda Bologna Aktiv 130 / 137 40% 1 28.11.2026 -
Brayan León Mamelodi Sundowns Aktiv 120 / 110 40% 1 27.11.2026 -
Marquinhos Spartak Moscow Aktiv 147 / 119 40% 1 22.11.2026 -
Manfred Ugalde Spartak Moscow Aktiv 143 / 125 40% 1 19.11.2026 -
Yan Diomandé Real Madrid Aktiv 154 / 159 40% 2 18.11.2026 -
Nicolás Cordero Aldosivi Aktiv 107 / 113 40% 1 17.11.2026 -
Bamba Dieng Crvena Zvezda Aktiv 111 / 135 40% 2 15.11.2026 -
Andrea Pinamonti Lazio Aktiv 150 / 141 40% 1 12.11.2026 -
Lassina Traoré Shakhtar Aktiv 137 / 124 40% 1 09.11.2026 -
Giorgio Scalvini Atalanta Aktiv 149 / 158 40% 1 09.11.2026 Mehr Infos nötig
Isak Hien Atalanta Aktiv 142 / 142 40% 1 09.11.2026 -
Christian Krasnodar Aktiv 129 / 132 40% 1 04.11.2026 -
Agustín Módica Gimnasia y Esgrima Aktiv 127 / 127 40% 1 01.11.2026 -
Alan Lescano Argentinos Juniors Aktiv 143 / 135 40% 1 28.10.2026 -
Themba Ngcobo SuperSport United Aktiv 106 / 111 40% 1 26.10.2026 -
Jacob Ramsey Newcastle United Aktiv 139 / 149 40% 1 23.10.2026 -
Jadon Sancho Manchester United Aktiv 143 / 142 40% 1 23.10.2026 -
Bénie Traoré New York City Aktiv 143 / 117 40% 1 23.10.2026 -
Kein Sato FC Tokyo Aktiv 124 / 137 40% 1 21.10.2026 -
Marezi Portsmouth Aktiv 107 / 117 40% 1 21.10.2026 -
Iliman N'Diaye Everton Aktiv 155 / 160 40% 1 19.10.2026 -
Yousef Salech Cardiff City Aktiv 110 / 129 40% 1 18.10.2026 -
Kévin Denkey FC Cincinnati Aktiv 114 / 118 40% 2 17.10.2026 -
Gabriel Martinelli Brighton Aktiv 172 / 165 40% 1 17.10.2026 -
Dejan Joveljić Seattle Sounders Aktiv 124 / 129 40% 1 14.10.2026 -
Alexis Cuello San Lorenzo Aktiv 114 / 127 40% 1 13.10.2026 -
Kenan Yıldız Juventus Aktiv 156 / 163 40% 1 10.10.2026 -
Will Lankshear Middlesbrough Aktiv 119 / 122 40% 1 09.10.2026 -
Dango Ouattara Brentford Aktiv 141 / 139 40% 1 05.10.2026 -
Noah Sadiki Sunderland Aktiv 153 / 143 40% 1 02.08.2026 -